Thursday, October 23, 2014
15:52 UTC
  |  Log In   |  Register Free
Airport Search:

Bishop International Airport
(KFNT)

FAA data valid effective September 18, 2014 - November 13, 2014 (unless otherwise noted).

 
 
 
 
 
 
 
 
 
 
 
 
 
 

Current Aviation Weather for Bishop International Airport (KFNT)

The most recent METAR observation for KFNT was updated at: 1513
METAR Summary (Translated METAR)
KFNT
231501Z 00000KT 7SM SCT002 06/03 A3026 RMK AO2 T00560033
KRNP
231454Z AUTO 00000KT 10SM CLR 06/05 A3025 RMK AO2 T00580047
(17.4 nm NW from KFNT)
KOZW
231455Z AUTO 00000KT 10SM CLR 05/05 A3025 RMK AO2 T00510050
(22.7 nm SW from KFNT)
TAF Summary (Translated TAF)
KFNT
231316Z 2313/2412 VRB03KT 1/2SM FG VV002 FM231400 VRB03KT 3SM BR SCT007 FM231500 26005KT P6SM SKC FM240400 22004KT P6SM BKN120 FM240900 20006KT P6SM OVC070
  Airport Weather Conditions for KFNT

 Current Weather at FNT
42° F
Fog/Mist
North winds at 0.0 mph
FNT NOAA Radar

Pressure: 30.26 in
Humidity: 89%
Wind: Calm
Dew Point: 39.0°F
Visibility: 4.00 mi


Airport Weather Forecast for KFNT

Translated METAR and TAF for KFNT
Translated METAR for KFNT (1547 UTC 23 October 2014)
found at http://aviationweather.gov/adds/metars/
 
METAR text: KFNT 231501Z 00000KT 7SM SCT002 06/03 A3026 RMK AO2 T00560033
Conditions at: KFNT (FLINT , MI, US) observed 1501 UTC 23 October 2014
Temperature: 5.6°C (42°F)
Dewpoint: 3.3°C (38°F) [RH = 85%]
Pressure (altimeter): 30.26 inches Hg (1024.8 mb)
Winds: calm
Visibility: 7 miles (11 km)
Ceiling: at least 12,000 feet AGL
Clouds: scattered clouds at 200 feet AGL
Weather: no significant weather observed at this time
Translated TAF for KFNT
Forecast for: KFNT (FLINT , MI, US)
TAF Text: KFNT 231316Z 2313/2412 VRB03KT 1/2SM FG VV002
Forecast period: 1300 to 1400 UTC 23 October 2014
Forecast type: FROM: standard forecast or significant change
Winds: variable direction winds at 3 MPH (3 knots; 1.6 m/s)
Visibility: 0.50 miles (0.80 km)
Ceiling: indefinite ceiling with vertical visibility of 200 feet AGL
Clouds: obscured sky
Weather: FG  (fog)
TAF Text: FM231400 VRB03KT 3SM BR SCT007
Forecast period: 1400 to 1500 UTC 23 October 2014
Forecast type: FROM: standard forecast or significant change
Winds: variable direction winds at 3 MPH (3 knots; 1.6 m/s)
Visibility: 3 miles (5 km)
Clouds: scattered clouds at 700 feet AGL
Weather: BR  (mist)
TAF Text: FM231500 26005KT P6SM SKC
Forecast period: 1500 UTC 23 October 2014 to 0400 UTC 24 October 2014
Forecast type: FROM: standard forecast or significant change
Winds: from the W (260 degrees) at 6 MPH (5 knots; 2.6 m/s)
Visibility: 6 or more miles (10+ km)
Clouds: clear skies
Weather: no significant weather forecast for this period
TAF Text: FM240400 22004KT P6SM BKN120
Forecast period: 0400 to 0900 UTC 24 October 2014
Forecast type: FROM: standard forecast or significant change
Winds: from the SW (220 degrees) at 5 MPH (4 knots; 2.1 m/s)
Visibility: 6 or more miles (10+ km)
Ceiling: 12000 feet AGL
Clouds: broken clouds at 12000 feet AGL
Weather: no significant weather forecast for this period
TAF Text: FM240900 20006KT P6SM OVC070
Forecast period: 0900 to 1200 UTC 24 October 2014
Forecast type: FROM: standard forecast or significant change
Winds: from the SSW (200 degrees) at 7 MPH (6 knots; 3.1 m/s)
Visibility: 6 or more miles (10+ km)
Ceiling: 7000 feet AGL
Clouds: overcast cloud deck at 7000 feet AGL
Weather: no significant weather forecast for this period

Find All Airport Services Find A Hotel Find A Rental Car Find A Golf Course Find A Restaurant $100 Hamburger



FBO's on the Field
FBO Company Facility Photos Services Transportation Aviation Fuel Prices: Prices include tax
Catering Weather Repair Courtesy Rental Type 100LL JetA JetA+ MOGAS 8087
 
Avflight Flint

This FBO has not yet been rated
FS:Avfuel
Last Updated: Oct-13
Login to update fuel prices
SS:
Contact Avflight FlintMore FBO Information
 
Add another FBO Facility Photos Catering Weather Repair Courtesy Rental Type 100LL JetA JetA+ MOGAS 8087
Services Transportation Aviation Fuel Prices: Prices include tax


model-print
model-print
model-print
model-print